Time;durP1;ratioP1;P1;durP2;ratioP2;P2;SDS_P1;SDS_P2;PMS_P1;PMS_P2;Temp;Humidity;BMP_temperature;BMP_pressure;BME280_temperature;BME280_humidity;BME280_pressure;Samples;Min_cycle;Max_cycle;Signal;HPM_P1;HPM_P2
2023/09/03 00:00:42;;;;;;;;;;;22.70;99.90;;;;;;5116422;28;19908;-70
2023/09/03 00:03:08;;;;;;;;;;;22.70;99.90;;;;;;5116340;28;20056;-69
2023/09/03 00:05:34;;;;;;;;;;;22.70;99.90;;;;;;5116491;28;19935;-69
2023/09/03 00:07:59;;;;;;;;;;;22.70;99.90;;;;;;5098118;28;20362;-69
2023/09/03 00:10:25;;;;;;;;;;;22.80;99.90;;;;;;5116787;28;19987;-70
2023/09/03 00:12:51;;;;;;;;;;;22.80;99.90;;;;;;5116122;28;20003;-69
2023/09/03 00:15:25;;;;;;;;;;;22.80;99.90;;;;;;5116261;28;20360;-69
2023/09/03 00:17:51;;;;;;;;;;;22.80;99.90;;;;;;5116194;28;19908;-69
2023/09/03 00:20:17;;;;;;;;;;;22.70;99.90;;;;;;5116387;28;20056;-69
2023/09/03 00:22:42;;;;;;;;;;;22.70;99.90;;;;;;5116009;28;20393;-70
2023/09/03 00:25:09;;;;;;;;;;;22.80;99.90;;;;;;5115919;28;20354;-69
2023/09/03 00:27:34;;;;;;;;;;;22.70;99.90;;;;;;5115838;28;19908;-70
2023/09/03 00:30:00;;;;;;;;;;;22.70;99.90;;;;;;5115840;28;19916;-69
2023/09/03 00:32:26;;;;;;;;;;;22.90;99.90;;;;;;5116375;28;19908;-69
2023/09/03 00:34:52;;;;;;;;;;;22.90;99.90;;;;;;5114804;28;19908;-70
2023/09/03 00:37:17;;;;;;;;;;;22.90;99.90;;;;;;5115678;28;20010;-70
2023/09/03 00:39:43;;;;;;;;;;;22.90;99.90;;;;;;5115771;28;20253;-70
2023/09/03 00:42:09;;;;;;;;;;;22.90;99.90;;;;;;5116343;28;19908;-70
2023/09/03 00:44:35;;;;;;;;;;;23.00;99.90;;;;;;5115580;28;20359;-71
2023/09/03 00:47:01;;;;;;;;;;;23.00;99.90;;;;;;5116221;28;19996;-70
2023/09/03 00:49:28;;;;;;;;;;;23.00;99.90;;;;;;5115458;28;19916;-67
2023/09/03 00:51:54;;;;;;;;;;;23.00;99.90;;;;;;5115735;28;19959;-67
2023/09/03 00:54:22;;;;;;;;;;;23.00;99.90;;;;;;5097162;28;19914;-70
2023/09/03 00:56:52;;;;;;;;;;;23.00;99.90;;;;;;5115768;28;19911;-68
2023/09/03 00:59:18;;;;;;;;;;;22.90;99.90;;;;;;5115211;28;19912;-68
2023/09/03 01:01:45;;;;;;;;;;;22.90;99.90;;;;;;5096911;28;19908;-68
2023/09/03 01:04:12;;;;;;;;;;;22.90;99.90;;;;;;5115775;28;19908;-69
2023/09/03 01:06:37;;;;;;;;;;;22.80;99.90;;;;;;5115243;28;20023;-68
2023/09/03 01:09:03;;;;;;;;;;;22.80;99.90;;;;;;5096704;28;20378;-68
2023/09/03 01:11:35;;;;;;;;;;;22.80;99.90;;;;;;5115059;28;19915;-68
2023/09/03 01:14:13;;;;;;;;;;;22.70;99.90;;;;;;5114981;28;19908;-68
2023/09/03 01:16:51;;;;;;;;;;;22.70;99.90;;;;;;5096744;28;19943;-67
2023/09/03 01:19:29;;;;;;;;;;;22.60;99.90;;;;;;5115459;28;19968;-68
2023/09/03 01:22:06;;;;;;;;;;;22.60;99.90;;;;;;5114971;28;19908;-67
2023/09/03 01:24:40;;;;;;;;;;;22.70;99.90;;;;;;5114829;28;19908;-69
2023/09/03 01:27:24;;;;;;;;;;;22.60;99.90;;;;;;5114811;28;19908;-68
2023/09/03 01:29:51;;;;;;;;;;;22.60;99.90;;;;;;5114624;28;19923;-69
2023/09/03 01:32:18;;;;;;;;;;;22.50;99.90;;;;;;5115078;28;19908;-69
2023/09/03 01:34:45;;;;;;;;;;;22.50;99.90;;;;;;5115005;28;19907;-69
2023/09/03 01:37:11;;;;;;;;;;;22.50;99.90;;;;;;5114576;28;19919;-69
2023/09/03 01:39:37;;;;;;;;;;;22.50;99.90;;;;;;5114643;28;20287;-68
2023/09/03 01:42:03;;;;;;;;;;;22.40;99.90;;;;;;5114562;28;19908;-69
2023/09/03 01:44:29;;;;;;;;;;;22.50;99.90;;;;;;5114464;28;19974;-68
2023/09/03 01:47:04;;;;;;;;;;;22.50;99.90;;;;;;5114548;28;19912;-70
2023/09/03 01:49:32;;;;;;;;;;;22.50;99.90;;;;;;5114675;28;19916;-69
2023/09/03 01:51:58;;;;;;;;;;;22.40;99.90;;;;;;5114411;28;19912;-69
2023/09/03 01:54:28;;;;;;;;;;;22.50;99.90;;;;;;5114403;28;19999;-69
2023/09/03 01:57:04;;;;;;;;;;;22.40;99.90;;;;;;5096027;28;19908;-69
2023/09/03 01:59:41;;;;;;;;;;;22.40;99.90;;;;;;5114179;28;19907;-68
2023/09/03 02:02:08;;;;;;;;;;;22.40;99.90;;;;;;5114551;28;19908;-69
2023/09/03 02:04:34;;;;;;;;;;;22.40;99.90;;;;;;5115061;28;19908;-68
2023/09/03 02:07:00;;;;;;;;;;;22.50;99.90;;;;;;5114190;28;20015;-69
2023/09/03 02:09:25;;;;;;;;;;;22.50;99.90;;;;;;5095678;28;20356;-69
2023/09/03 02:11:51;;;;;;;;;;;22.40;99.90;;;;;;5114650;28;19968;-69
2023/09/03 02:14:17;;;;;;;;;;;22.40;99.90;;;;;;5114008;28;19908;-69
2023/09/03 02:16:43;;;;;;;;;;;22.30;99.90;;;;;;5114335;28;19951;-69
2023/09/03 02:19:09;;;;;;;;;;;22.20;99.90;;;;;;5114061;28;19908;-69
2023/09/03 02:21:35;;;;;;;;;;;22.30;99.90;;;;;;5113931;28;19908;-68
2023/09/03 02:24:00;;;;;;;;;;;22.30;99.90;;;;;;5095703;28;19908;-68
2023/09/03 02:26:26;;;;;;;;;;;22.20;99.90;;;;;;5114552;28;19907;-69
2023/09/03 02:28:52;;;;;;;;;;;22.10;99.90;;;;;;5113711;28;20010;-68
2023/09/03 02:31:18;;;;;;;;;;;22.00;99.90;;;;;;5114429;28;20264;-68
2023/09/03 02:33:43;;;;;;;;;;;22.10;99.90;;;;;;5113893;28;19908;-69
2023/09/03 02:36:09;;;;;;;;;;;22.10;99.90;;;;;;5114118;28;19919;-68
2023/09/03 02:38:35;;;;;;;;;;;22.10;99.90;;;;;;5095938;28;19961;-68
2023/09/03 02:41:01;;;;;;;;;;;22.10;99.90;;;;;;5114373;28;19911;-70
2023/09/03 02:43:27;;;;;;;;;;;22.10;99.90;;;;;;5095329;28;19907;-68
2023/09/03 02:45:52;;;;;;;;;;;22.10;99.90;;;;;;5114387;28;20397;-68
2023/09/03 02:48:18;;;;;;;;;;;22.10;99.90;;;;;;5113765;28;19919;-69
2023/09/03 02:50:44;;;;;;;;;;;22.10;99.90;;;;;;5113942;28;19912;-69
2023/09/03 02:53:10;;;;;;;;;;;22.20;99.90;;;;;;5095356;28;19915;-69
2023/09/03 02:55:36;;;;;;;;;;;22.20;99.90;;;;;;5113586;28;19908;-68
2023/09/03 02:58:02;;;;;;;;;;;22.20;99.90;;;;;;5114782;28;19908;-69
2023/09/03 03:00:27;;;;;;;;;;;22.20;99.90;;;;;;5117714;28;19908;-68
2023/09/03 03:02:53;;;;;;;;;;;22.20;99.90;;;;;;5118223;28;19908;-68
2023/09/03 03:05:19;;;;;;;;;;;22.30;99.90;;;;;;5099268;28;19908;-69
2023/09/03 03:07:45;;;;;;;;;;;22.20;99.90;;;;;;5112910;28;19922;-69
2023/09/03 03:10:11;;;;;;;;;;;22.20;99.90;;;;;;5096790;28;20379;-69
2023/09/03 03:12:37;;;;;;;;;;;22.20;99.90;;;;;;5069788;28;19979;-67
2023/09/03 03:15:04;;;;;;;;;;;22.20;99.90;;;;;;5070901;28;19919;-69
2023/09/03 03:17:29;;;;;;;;;;;22.20;99.90;;;;;;5091289;28;19915;-68
2023/09/03 03:19:55;;;;;;;;;;;22.20;99.90;;;;;;5096982;28;19908;-68
2023/09/03 03:22:21;;;;;;;;;;;22.20;99.90;;;;;;5096833;28;20382;-69
2023/09/03 03:24:47;;;;;;;;;;;22.20;99.90;;;;;;5096882;28;19915;-70
2023/09/03 03:27:13;;;;;;;;;;;22.20;99.90;;;;;;5097035;28;20364;-69
2023/09/03 03:29:39;;;;;;;;;;;22.20;99.90;;;;;;5096535;28;19942;-68
2023/09/03 03:32:07;;;;;;;;;;;22.20;99.90;;;;;;5096726;28;19908;-69
2023/09/03 03:34:33;;;;;;;;;;;22.20;99.90;;;;;;5096610;28;19908;-68
2023/09/03 03:36:58;;;;;;;;;;;22.20;99.90;;;;;;5096744;28;20367;-69
2023/09/03 03:39:24;;;;;;;;;;;22.20;99.90;;;;;;5097170;28;19909;-69
2023/09/03 03:41:50;;;;;;;;;;;22.10;99.90;;;;;;5096778;28;19995;-69
2023/09/03 03:44:16;;;;;;;;;;;22.10;99.90;;;;;;5096626;28;19908;-68
2023/09/03 03:46:42;;;;;;;;;;;22.10;99.90;;;;;;5096743;28;19915;-69
2023/09/03 03:49:08;;;;;;;;;;;22.10;99.90;;;;;;5096603;28;19962;-69
2023/09/03 03:51:34;;;;;;;;;;;22.10;99.90;;;;;;5096655;28;19953;-68
2023/09/03 03:54:03;;;;;;;;;;;22.10;99.90;;;;;;5096269;28;19908;-68
2023/09/03 03:56:29;;;;;;;;;;;22.00;99.90;;;;;;5096220;28;20008;-68
2023/09/03 03:58:55;;;;;;;;;;;21.90;99.90;;;;;;5096053;28;20003;-69
2023/09/03 04:01:23;;;;;;;;;;;21.90;99.90;;;;;;5096667;28;19943;-68
2023/09/03 04:03:50;;;;;;;;;;;21.90;99.90;;;;;;5096429;28;19912;-68
2023/09/03 04:06:16;;;;;;;;;;;21.80;99.90;;;;;;5096057;28;20356;-68
2023/09/03 04:08:45;;;;;;;;;;;21.80;99.90;;;;;;5095899;28;20002;-68
2023/09/03 04:11:14;;;;;;;;;;;21.90;99.90;;;;;;5095965;28;19912;-69
2023/09/03 04:13:40;;;;;;;;;;;21.90;99.90;;;;;;5096151;28;19909;-68
2023/09/03 04:16:08;;;;;;;;;;;21.80;99.90;;;;;;5095796;28;19994;-68
2023/09/03 04:18:34;;;;;;;;;;;21.80;99.90;;;;;;5095846;28;19927;-68
2023/09/03 04:21:00;;;;;;;;;;;21.80;99.90;;;;;;5095738;28;19908;-68
2023/09/03 04:23:26;;;;;;;;;;;21.70;99.90;;;;;;5096262;28;19915;-69
2023/09/03 04:25:52;;;;;;;;;;;21.70;99.90;;;;;;5095666;28;19908;-69
2023/09/03 04:28:21;;;;;;;;;;;21.70;99.90;;;;;;5095740;28;20418;-67
2023/09/03 04:30:52;;;;;;;;;;;21.70;99.90;;;;;;5095421;28;20005;-68
2023/09/03 04:33:18;;;;;;;;;;;21.70;99.90;;;;;;5095848;28;19908;-68
2023/09/03 04:35:43;;;;;;;;;;;21.80;99.90;;;;;;5095288;28;19908;-68
2023/09/03 04:38:09;;;;;;;;;;;21.80;99.90;;;;;;5095491;28;19912;-68
2023/09/03 04:40:35;;;;;;;;;;;21.80;99.90;;;;;;5095888;28;20003;-68
2023/09/03 04:43:04;;;;;;;;;;;21.70;99.90;;;;;;5095293;28;19912;-68
2023/09/03 04:45:31;;;;;;;;;;;21.80;99.90;;;;;;5095267;28;19909;-68
2023/09/03 04:47:57;;;;;;;;;;;21.80;99.90;;;;;;5095267;28;19908;-69
2023/09/03 04:50:23;;;;;;;;;;;21.70;99.90;;;;;;5095419;28;20022;-69
2023/09/03 04:52:49;;;;;;;;;;;21.80;99.90;;;;;;5095365;28;19920;-69
2023/09/03 04:55:15;;;;;;;;;;;21.90;99.90;;;;;;5095120;28;19908;-69
2023/09/03 04:57:41;;;;;;;;;;;21.90;99.90;;;;;;5095616;28;19952;-69
2023/09/03 05:00:07;;;;;;;;;;;22.00;99.90;;;;;;5094920;28;19999;-68
2023/09/03 05:02:36;;;;;;;;;;;22.00;99.90;;;;;;5077091;28;20407;-68
2023/09/03 05:05:02;;;;;;;;;;;22.20;99.90;;;;;;5095403;28;19908;-68
2023/09/03 05:07:28;;;;;;;;;;;22.20;99.90;;;;;;5076765;28;19919;-68
2023/09/03 05:09:55;;;;;;;;;;;22.30;99.90;;;;;;5094726;28;19916;-69
2023/09/03 05:12:21;;;;;;;;;;;22.40;99.90;;;;;;5094757;28;19908;-69
2023/09/03 05:14:47;;;;;;;;;;;22.50;99.90;;;;;;5094584;28;19961;-69
2023/09/03 05:17:13;;;;;;;;;;;22.50;99.90;;;;;;5094700;28;19908;-69
2023/09/03 05:19:39;;;;;;;;;;;22.60;99.90;;;;;;5094842;28;19919;-68
2023/09/03 05:22:05;;;;;;;;;;;22.70;99.90;;;;;;5094339;28;20007;-69
2023/09/03 05:24:31;;;;;;;;;;;22.70;99.90;;;;;;5094529;28;19954;-67
2023/09/03 05:26:57;;;;;;;;;;;22.80;99.90;;;;;;5076357;28;19909;-69
2023/09/03 05:29:23;;;;;;;;;;;22.70;99.90;;;;;;5094602;28;19986;-69
2023/09/03 05:31:49;;;;;;;;;;;22.80;99.90;;;;;;5094911;28;19919;-69
2023/09/03 05:34:15;;;;;;;;;;;22.80;99.90;;;;;;5094615;28;19915;-68
2023/09/03 05:36:40;;;;;;;;;;;22.90;99.90;;;;;;5094281;28;19916;-69
2023/09/03 05:39:06;;;;;;;;;;;22.90;99.90;;;;;;5094220;28;20352;-69
2023/09/03 05:41:32;;;;;;;;;;;22.90;99.90;;;;;;5076024;28;19975;-68
2023/09/03 05:43:58;;;;;;;;;;;22.90;99.90;;;;;;5094282;28;19954;-69
2023/09/03 05:46:24;;;;;;;;;;;22.90;99.90;;;;;;5094748;28;20064;-69
2023/09/03 05:48:50;;;;;;;;;;;22.90;99.90;;;;;;5094065;28;19912;-70
2023/09/03 05:51:16;;;;;;;;;;;23.00;99.90;;;;;;5094066;28;19939;-69
2023/09/03 05:53:42;;;;;;;;;;;23.10;99.90;;;;;;5075800;28;19912;-69
2023/09/03 05:56:09;;;;;;;;;;;23.10;99.90;;;;;;5094611;28;19912;-70
2023/09/03 05:58:35;;;;;;;;;;;23.20;99.90;;;;;;5094301;28;19908;-68
2023/09/03 06:01:05;;;;;;;;;;;23.20;99.90;;;;;;5093949;28;20322;-68
2023/09/03 06:03:31;;;;;;;;;;;23.30;99.90;;;;;;5094401;28;20267;-68
2023/09/03 06:06:00;;;;;;;;;;;23.40;99.90;;;;;;5094173;28;19908;-68
2023/09/03 06:08:26;;;;;;;;;;;23.40;99.90;;;;;;5093830;28;20352;-68
2023/09/03 06:10:56;;;;;;;;;;;23.40;99.90;;;;;;5093826;28;19918;-68
2023/09/03 06:13:28;;;;;;;;;;;23.50;99.90;;;;;;5094043;28;20010;-69
2023/09/03 06:15:54;;;;;;;;;;;23.50;99.90;;;;;;5093611;28;19915;-69
2023/09/03 06:18:20;;;;;;;;;;;23.50;99.90;;;;;;5093757;28;19953;-69
2023/09/03 06:20:46;;;;;;;;;;;23.50;99.90;;;;;;5075486;28;19991;-68
2023/09/03 06:23:15;;;;;;;;;;;23.50;99.90;;;;;;5093649;28;20280;-68
2023/09/03 06:25:42;;;;;;;;;;;23.70;99.90;;;;;;5093534;28;19914;-68
2023/09/03 06:28:08;;;;;;;;;;;23.70;99.90;;;;;;5094174;28;19908;-69
2023/09/03 06:30:34;;;;;;;;;;;23.70;99.90;;;;;;5093406;28;19922;-69
2023/09/03 06:33:00;;;;;;;;;;;23.70;99.90;;;;;;5076723;28;19908;-67
2023/09/03 06:35:25;;;;;;;;;;;23.80;99.90;;;;;;5079670;28;19991;-69
2023/09/03 06:37:52;;;;;;;;;;;23.80;99.90;;;;;;5097662;28;19920;-69
2023/09/03 06:40:17;;;;;;;;;;;23.80;99.90;;;;;;5097958;28;20006;-69
2023/09/03 06:42:43;;;;;;;;;;;23.80;99.90;;;;;;5079437;28;19952;-69
2023/09/03 06:45:09;;;;;;;;;;;23.80;99.90;;;;;;5097450;28;19912;-69
2023/09/03 06:47:35;;;;;;;;;;;24.00;99.90;;;;;;5097636;28;19915;-68
2023/09/03 06:50:01;;;;;;;;;;;24.10;99.90;;;;;;5097306;28;19916;-68
2023/09/03 06:52:27;;;;;;;;;;;24.20;99.90;;;;;;5098050;28;19912;-69
2023/09/03 06:54:53;;;;;;;;;;;24.40;99.90;;;;;;5097715;28;19977;-69
2023/09/03 06:57:20;;;;;;;;;;;24.40;99.90;;;;;;5097944;28;19912;-69
2023/09/03 06:59:45;;;;;;;;;;;24.60;99.90;;;;;;5097542;28;19915;-69
2023/09/03 07:02:12;;;;;;;;;;;24.70;99.90;;;;;;5097203;28;19908;-68
2023/09/03 07:04:38;;;;;;;;;;;24.60;99.90;;;;;;5097165;28;19908;-70
2023/09/03 07:07:03;;;;;;;;;;;24.70;99.90;;;;;;5097246;28;19908;-69
2023/09/03 07:09:31;;;;;;;;;;;24.70;99.90;;;;;;5096993;28;19927;-69
2023/09/03 07:11:57;;;;;;;;;;;24.70;99.90;;;;;;5097351;28;19908;-69
2023/09/03 07:14:22;;;;;;;;;;;24.80;99.90;;;;;;5096829;28;19914;-69
2023/09/03 07:16:48;;;;;;;;;;;24.90;99.90;;;;;;5097296;28;19908;-69
2023/09/03 07:19:14;;;;;;;;;;;25.00;99.90;;;;;;5096854;28;19961;-70
2023/09/03 07:21:40;;;;;;;;;;;25.20;99.90;;;;;;5097401;28;19991;-69
2023/09/03 07:24:06;;;;;;;;;;;25.20;99.90;;;;;;5097272;28;20314;-69
2023/09/03 07:26:31;;;;;;;;;;;25.30;99.90;;;;;;5097343;28;19908;-69
2023/09/03 07:28:57;;;;;;;;;;;25.40;99.90;;;;;;5078131;28;19951;-69
2023/09/03 07:31:23;;;;;;;;;;;25.50;99.90;;;;;;5097377;28;19966;-69
2023/09/03 07:33:49;;;;;;;;;;;25.70;99.90;;;;;;5078451;28;20367;-69
2023/09/03 07:36:15;;;;;;;;;;;25.80;99.90;;;;;;5096477;28;19963;-68
2023/09/03 07:38:40;;;;;;;;;;;25.90;99.90;;;;;;5078490;28;19981;-70
2023/09/03 07:41:06;;;;;;;;;;;26.00;99.90;;;;;;5096848;28;20097;-69
2023/09/03 07:43:34;;;;;;;;;;;26.20;99.90;;;;;;5096132;28;19961;-69
2023/09/03 07:45:59;;;;;;;;;;;26.40;99.90;;;;;;5096306;28;19916;-69
2023/09/03 07:48:25;;;;;;;;;;;26.50;99.90;;;;;;5096462;28;20015;-69
2023/09/03 07:50:51;;;;;;;;;;;26.80;99.90;;;;;;5096425;28;19912;-68
2023/09/03 07:53:17;;;;;;;;;;;27.00;99.90;;;;;;5096331;28;20304;-69
2023/09/03 07:55:43;;;;;;;;;;;27.10;99.90;;;;;;5096874;28;20001;-69
2023/09/03 07:58:09;;;;;;;;;;;27.30;99.90;;;;;;5096481;28;19994;-69
2023/09/03 08:00:35;;;;;;;;;;;27.40;99.90;;;;;;5096087;28;20352;-69
2023/09/03 08:03:01;;;;;;;;;;;27.50;99.90;;;;;;5096650;28;19915;-69
2023/09/03 08:05:27;;;;;;;;;;;27.90;99.90;;;;;;5096075;28;19915;-70
2023/09/03 08:07:52;;;;;;;;;;;27.90;99.90;;;;;;5096005;28;19908;-69
2023/09/03 08:10:18;;;;;;;;;;;28.10;99.90;;;;;;5096230;28;19969;-69
2023/09/03 08:12:44;;;;;;;;;;;28.40;99.90;;;;;;5077811;28;19916;-69
2023/09/03 08:15:11;;;;;;;;;;;28.50;99.90;;;;;;5097471;28;19912;-68
2023/09/03 08:17:36;;;;;;;;;;;28.70;99.90;;;;;;5078344;28;19969;-70
2023/09/03 08:20:03;;;;;;;;;;;28.90;99.90;;;;;;5095897;28;19908;-69
2023/09/03 08:22:29;;;;;;;;;;;29.10;99.90;;;;;;5095767;28;19970;-68
2023/09/03 08:24:55;;;;;;;;;;;29.30;99.90;;;;;;5095694;28;20007;-69
2023/09/03 08:27:20;;;;;;;;;;;29.30;99.90;;;;;;5096151;28;19931;-69
2023/09/03 08:29:47;;;;;;;;;;;29.20;99.90;;;;;;5095568;28;19923;-69
2023/09/03 08:32:12;;;;;;;;;;;29.40;99.90;;;;;;5095504;28;19923;-69
2023/09/03 08:34:38;;;;;;;;;;;28.90;99.90;;;;;;5095518;28;19938;-69
2023/09/03 08:37:04;;;;;;;;;;;28.80;99.90;;;;;;5095480;28;19920;-69
2023/09/03 08:39:30;;;;;;;;;;;29.10;99.90;;;;;;5095885;28;19916;-71
2023/09/03 08:41:57;;;;;;;;;;;29.60;99.90;;;;;;5095430;28;20013;-69
2023/09/03 08:44:34;;;;;;;;;;;29.70;99.90;;;;;;5095108;28;19908;-69
2023/09/03 08:47:02;;;;;;;;;;;29.40;99.90;;;;;;5095649;28;19908;-68
2023/09/03 08:49:29;;;;;;;;;;;29.90;99.90;;;;;;5095218;28;20021;-69
2023/09/03 08:51:57;;;;;;;;;;;29.70;99.90;;;;;;5095131;28;19912;-69
2023/09/03 08:54:22;;;;;;;;;;;29.70;99.90;;;;;;5095609;28;19908;-68
2023/09/03 08:56:48;;;;;;;;;;;29.90;99.90;;;;;;5094512;28;19908;-69
2023/09/03 08:59:14;;;;;;;;;;;30.10;99.90;;;;;;5094936;28;19912;-69
2023/09/03 09:01:40;;;;;;;;;;;29.80;99.90;;;;;;5095301;28;19908;-69
2023/09/03 09:04:07;;;;;;;;;;;29.70;99.90;;;;;;5094911;28;19908;-69
2023/09/03 09:06:33;;;;;;;;;;;29.80;99.90;;;;;;5094849;28;19915;-69
2023/09/03 09:08:59;;;;;;;;;;;29.40;99.90;;;;;;5094789;28;20010;-68
2023/09/03 09:11:31;;;;;;;;;;;29.20;99.90;;;;;;5094794;28;19999;-68
2023/09/03 09:13:57;;;;;;;;;;;29.30;99.90;;;;;;5094678;28;19908;-69
2023/09/03 09:16:23;;;;;;;;;;;29.40;99.90;;;;;;5094849;28;19908;-69
2023/09/03 09:18:49;;;;;;;;;;;29.60;99.90;;;;;;5095114;28;19935;-69
2023/09/03 09:21:16;;;;;;;;;;;29.60;99.90;;;;;;5094580;28;20056;-69
2023/09/03 09:23:48;;;;;;;;;;;29.50;99.90;;;;;;5076393;28;19915;-69
2023/09/03 09:26:18;;;;;;;;;;;29.70;99.90;;;;;;5094664;28;19974;-69
2023/09/03 09:28:57;;;;;;;;;;;29.50;99.90;;;;;;5094519;28;20279;-69
2023/09/03 09:31:30;;;;;;;;;;;29.70;99.90;;;;;;5094426;28;19918;-69
2023/09/03 09:33:57;;;;;;;;;;;29.80;99.90;;;;;;5094310;28;19924;-69
2023/09/03 09:36:22;;;;;;;;;;;29.90;99.90;;;;;;5094544;28;19951;-69
2023/09/03 09:38:48;;;;;;;;;;;29.80;99.90;;;;;;5094344;28;20004;-69
2023/09/03 09:41:20;;;;;;;;;;;30.00;99.90;;;;;;5094890;28;19930;-69
2023/09/03 09:43:46;;;;;;;;;;;29.40;99.90;;;;;;5094231;28;19915;-68
2023/09/03 09:46:24;;;;;;;;;;;29.50;99.90;;;;;;5094047;28;19912;-68
2023/09/03 09:48:57;;;;;;;;;;;29.80;99.90;;;;;;5094494;28;20409;-68
2023/09/03 09:51:22;;;;;;;;;;;29.90;99.90;;;;;;5094399;28;19915;-69
2023/09/03 09:53:55;;;;;;;;;;;30.10;99.90;;;;;;5093728;28;19912;-68
2023/09/03 09:56:24;;;;;;;;;;;29.80;99.90;;;;;;5094151;28;19908;-68
2023/09/03 09:58:50;;;;;;;;;;;29.80;99.90;;;;;;5094103;28;19915;-68
2023/09/03 10:01:16;;;;;;;;;;;30.00;99.90;;;;;;5093827;28;19908;-69
2023/09/03 10:03:42;;;;;;;;;;;29.90;99.90;;;;;;5094556;28;19908;-68
2023/09/03 10:06:08;;;;;;;;;;;30.00;99.90;;;;;;5093959;28;19912;-69
2023/09/03 10:08:34;;;;;;;;;;;30.10;99.90;;;;;;5093920;28;20264;-70
2023/09/03 10:11:00;;;;;;;;;;;30.10;99.90;;;;;;5093842;28;19916;-69
2023/09/03 10:13:26;;;;;;;;;;;29.90;99.90;;;;;;5094406;28;19961;-69
2023/09/03 10:15:52;;;;;;;;;;;29.80;99.90;;;;;;5093623;28;19908;-69
2023/09/03 10:18:18;;;;;;;;;;;29.50;99.90;;;;;;5075700;28;19908;-68
2023/09/03 10:20:45;;;;;;;;;;;29.30;99.90;;;;;;5094239;28;19999;-68
2023/09/03 10:23:11;;;;;;;;;;;29.10;99.90;;;;;;5075680;28;19909;-69
2023/09/03 10:25:37;;;;;;;;;;;29.20;99.90;;;;;;5094234;28;19908;-69
2023/09/03 10:28:07;;;;;;;;;;;29.40;99.90;;;;;;5075598;28;20427;-68
2023/09/03 10:30:35;;;;;;;;;;;29.30;99.90;;;;;;5093543;28;19916;-68
2023/09/03 10:33:01;;;;;;;;;;;29.40;99.90;;;;;;5093631;28;19962;-68
2023/09/03 10:35:27;;;;;;;;;;;29.50;99.90;;;;;;5094457;28;20425;-69
2023/09/03 10:37:53;;;;;;;;;;;29.40;99.90;;;;;;5093466;28;19920;-68
2023/09/03 10:40:23;;;;;;;;;;;29.60;99.90;;;;;;5094128;28;19951;-68
2023/09/03 10:42:52;;;;;;;;;;;29.40;99.90;;;;;;5093525;28;19908;-68
2023/09/03 10:45:18;;;;;;;;;;;29.60;99.90;;;;;;5093362;28;19908;-68
2023/09/03 10:47:57;;;;;;;;;;;29.40;99.90;;;;;;5093494;28;19908;-69
2023/09/03 10:50:44;;;;;;;;;;;29.60;99.90;;;;;;5093468;28;19916;-68
2023/09/03 10:53:29;;;;;;;;;;;29.60;99.90;;;;;;5075205;28;19981;-69
2023/09/03 10:56:07;;;;;;;;;;;29.80;99.90;;;;;;5075059;28;19969;-70
2023/09/03 10:58:33;;;;;;;;;;;29.90;99.90;;;;;;5093260;28;19996;-68
2023/09/03 11:01:18;;;;;;;;;;;30.20;99.90;;;;;;5093680;28;19955;-69
2023/09/03 11:03:46;;;;;;;;;;;30.30;99.90;;;;;;5093603;28;19915;-69
2023/09/03 11:06:19;;;;;;;;;;;30.30;99.90;;;;;;5093533;28;19912;-69
2023/09/03 11:08:47;;;;;;;;;;;30.60;99.90;;;;;;5093213;28;19908;-68
2023/09/03 11:11:20;;;;;;;;;;;30.90;99.90;;;;;;5093364;28;20268;-69
2023/09/03 11:13:49;;;;;;;;;;;30.70;99.90;;;;;;5093411;28;19947;-69
2023/09/03 11:16:15;;;;;;;;;;;30.50;99.90;;;;;;5093042;28;19914;-69
2023/09/03 11:18:46;;;;;;;;;;;30.20;99.90;;;;;;5094336;28;19952;-69
2023/09/03 11:21:12;;;;;;;;;;;30.10;99.90;;;;;;5096974;28;19977;-69
2023/09/03 11:23:38;;;;;;;;;;;30.00;99.90;;;;;;5096635;28;20017;-68
2023/09/03 11:26:12;;;;;;;;;;;30.20;99.90;;;;;;5097144;28;19941;-69
2023/09/03 11:28:37;;;;;;;;;;;30.20;99.90;;;;;;5096460;28;19915;-69
2023/09/03 11:31:03;;;;;;;;;;;30.70;99.90;;;;;;5096303;28;19916;-69
2023/09/03 11:33:29;;;;;;;;;;;30.90;99.90;;;;;;5097026;28;19915;-69
2023/09/03 11:35:55;;;;;;;;;;;30.80;99.90;;;;;;5096443;28;19915;-69
2023/09/03 11:38:27;;;;;;;;;;;30.80;99.90;;;;;;5096381;28;19969;-68
2023/09/03 11:40:55;;;;;;;;;;;30.80;99.90;;;;;;5096370;28;20340;-69
2023/09/03 11:43:21;;;;;;;;;;;30.90;99.90;;;;;;5097012;28;19983;-69
2023/09/03 11:45:47;;;;;;;;;;;31.10;99.90;;;;;;5096331;28;19976;-69
2023/09/03 11:48:13;;;;;;;;;;;31.00;99.90;;;;;;5096478;28;19908;-69
2023/09/03 11:50:39;;;;;;;;;;;31.00;99.90;;;;;;5096326;28;19927;-69
2023/09/03 11:53:05;;;;;;;;;;;31.10;99.90;;;;;;5096827;28;19915;-69
2023/09/03 11:55:33;;;;;;;;;;;31.00;99.90;;;;;;5096288;28;19919;-69
2023/09/03 11:58:01;;;;;;;;;;;31.30;99.90;;;;;;5096754;28;20348;-69
2023/09/03 12:00:27;;;;;;;;;;;31.20;99.90;;;;;;5096195;28;19908;-69
2023/09/03 12:02:53;;;;;;;;;;;31.10;99.90;;;;;;5096657;28;19908;-70
2023/09/03 12:05:19;;;;;;;;;;;31.20;99.90;;;;;;5096083;28;19961;-69
2023/09/03 12:07:46;;;;;;;;;;;31.20;99.90;;;;;;5096099;28;19915;-69
2023/09/03 12:10:16;;;;;;;;;;;31.20;99.90;;;;;;5095988;28;19916;-68
2023/09/03 12:12:42;;;;;;;;;;;31.30;99.90;;;;;;5096230;28;19909;-68
2023/09/03 12:15:21;;;;;;;;;;;31.30;99.90;;;;;;5095772;28;19912;-69
2023/09/03 12:17:47;;;;;;;;;;;31.40;99.90;;;;;;5095638;28;19909;-69
2023/09/03 12:20:32;;;;;;;;;;;31.30;99.90;;;;;;5095712;28;19908;-69
2023/09/03 12:23:14;;;;;;;;;;;31.30;99.90;;;;;;5095811;28;19951;-71
2023/09/03 12:25:40;;;;;;;;;;;31.30;99.90;;;;;;5095659;28;19918;-69
2023/09/03 12:28:07;;;;;;;;;;;31.10;99.90;;;;;;5096205;28;20272;-71
2023/09/03 12:31:08;;;;;;;;;;;31.10;99.90;;;;;;5095332;28;19977;-69
2023/09/03 12:33:34;;;;;;;;;;;31.10;99.90;;;;;;5033906;28;20387;-69
2023/09/03 12:36:04;;;;;;;;;;;30.90;99.90;;;;;;5033181;28;19913;-69
2023/09/03 12:38:29;;;;;;;;;;;30.80;99.90;;;;;;5033818;28;19944;-69
2023/09/03 12:40:55;;;;;;;;;;;31.00;99.90;;;;;;5033186;28;19909;-69
2023/09/03 12:43:24;;;;;;;;;;;31.00;99.90;;;;;;5033142;28;20012;-70
2023/09/03 12:45:49;;;;;;;;;;;31.00;99.90;;;;;;5032684;28;19913;-70
2023/09/03 12:48:15;;;;;;;;;;;30.60;99.90;;;;;;5016494;28;19955;-69
2023/09/03 12:50:41;;;;;;;;;;;30.40;99.90;;;;;;5032769;28;19923;-69
2023/09/03 12:53:07;;;;;;;;;;;30.10;99.90;;;;;;5033011;28;19939;-69
2023/09/03 12:55:33;;;;;;;;;;;30.10;99.90;;;;;;5033148;28;20435;-69
2023/09/03 12:57:58;;;;;;;;;;;30.20;99.90;;;;;;5032919;28;19996;-69
2023/09/03 13:00:24;;;;;;;;;;;30.10;99.90;;;;;;5032962;28;20288;-69
2023/09/03 13:02:50;;;;;;;;;;;30.00;99.90;;;;;;5033068;28;20048;-69
2023/09/03 13:05:16;;;;;;;;;;;30.00;99.90;;;;;;5032693;28;20390;-69
2023/09/03 13:07:42;;;;;;;;;;;30.10;99.90;;;;;;5045665;28;19915;-69
2023/09/03 13:10:08;;;;;;;;;;;30.40;99.90;;;;;;5054585;28;19969;-69
2023/09/03 13:12:33;;;;;;;;;;;30.50;99.90;;;;;;5054498;28;20362;-67
2023/09/03 13:14:59;;;;;;;;;;;30.50;99.90;;;;;;5065254;28;19908;-68
2023/09/03 13:17:28;;;;;;;;;;;30.80;99.90;;;;;;5074464;28;19909;-69
2023/09/03 13:19:54;;;;;;;;;;;30.90;99.90;;;;;;5074870;28;20462;-69
2023/09/03 13:22:20;;;;;;;;;;;30.80;99.90;;;;;;5074321;28;19999;-69
2023/09/03 13:24:47;;;;;;;;;;;30.90;99.90;;;;;;5074742;28;19915;-69
2023/09/03 13:27:13;;;;;;;;;;;30.90;99.90;;;;;;5074098;28;19909;-68
2023/09/03 13:29:38;;;;;;;;;;;31.00;99.90;;;;;;5073944;28;19924;-68
2023/09/03 13:32:04;;;;;;;;;;;31.10;99.90;;;;;;5074579;28;19908;-69
2023/09/03 13:34:30;;;;;;;;;;;31.10;99.90;;;;;;5074092;28;20315;-69
2023/09/03 13:36:56;;;;;;;;;;;31.10;99.90;;;;;;5083858;28;20003;-69
2023/09/03 13:39:22;;;;;;;;;;;31.00;99.90;;;;;;5094570;28;19908;-68
2023/09/03 13:41:48;;;;;;;;;;;30.70;99.90;;;;;;5094038;28;20371;-69
2023/09/03 13:44:14;;;;;;;;;;;30.80;99.90;;;;;;5094540;28;19908;-69
2023/09/03 13:46:40;;;;;;;;;;;30.90;99.90;;;;;;5075865;28;19919;-69
2023/09/03 13:49:06;;;;;;;;;;;31.10;99.90;;;;;;5075930;28;20322;-71
2023/09/03 13:51:31;;;;;;;;;;;31.00;99.90;;;;;;5075825;28;19965;-69
2023/09/03 13:53:57;;;;;;;;;;;31.30;99.90;;;;;;5075909;28;20272;-69
2023/09/03 13:56:23;;;;;;;;;;;31.10;99.90;;;;;;5094408;28;19908;-69
2023/09/03 13:58:49;;;;;;;;;;;31.10;99.90;;;;;;5094220;28;19968;-69
2023/09/03 14:01:16;;;;;;;;;;;31.00;99.90;;;;;;5093945;28;19995;-69
2023/09/03 14:03:42;;;;;;;;;;;30.90;99.90;;;;;;5093594;28;19999;-68
2023/09/03 14:06:08;;;;;;;;;;;31.00;99.90;;;;;;5075825;28;20004;-71
2023/09/03 14:08:37;;;;;;;;;;;31.00;99.90;;;;;;5094407;28;20374;-69
2023/09/03 14:11:03;;;;;;;;;;;30.80;99.90;;;;;;5093743;28;20387;-69
2023/09/03 14:13:29;;;;;;;;;;;30.80;99.90;;;;;;5075712;28;19908;-69
2023/09/03 14:15:55;;;;;;;;;;;30.50;99.90;;;;;;5093670;28;19954;-69